SAS637 EDDF-EKCH
Flight info
| Callsign | SAS637 |
|---|---|
| Flight time | 1h 8m |
| Altitude | 39000 |
| Route | MARUN3W/25C MARUN Y150 TOLGI DCT SAS DCT MAKEL N851 GESKA Z711 MONAK |
| Aircraft | A20N/M-SDE2E3FGHIRWXY/LB1 |
Departure
| Time | 2026-05-04 17:53 |
|---|---|
| Airport | Frankfurt Main Airport (EDDF) |
Arrival
| Time | 2026-05-04 19:02 |
|---|---|
| Airport | Copenhagen Kastrup Airport (EKCH) |
| Time | Latitude | Longitude | Altitude | Speed | Heading |
|---|---|---|---|---|---|
| 2026-05-04 17:26 | 50.04886 | 8.57453 | 364 ft | 0 kts | 213° |
| 2026-05-04 17:39 | 50.04914 | 8.57481 | 360 ft | 3 kts | 208° |
| 2026-05-04 17:39 | 50.04932 | 8.57493 | 358 ft | 3 kts | 185° |
| 2026-05-04 17:39 | 50.04946 | 8.57491 | 358 ft | 2 kts | 120° |
| 2026-05-04 17:40 | 50.04949 | 8.57484 | 358 ft | 1 kts | 114° |
| 2026-05-04 17:40 | 50.04950 | 8.57481 | 358 ft | 0 kts | 114° |
| 2026-05-04 17:44 | 50.04938 | 8.57522 | 359 ft | 8 kts | 114° |
| 2026-05-04 17:44 | 50.04901 | 8.57646 | 363 ft | 17 kts | 114° |
| 2026-05-04 17:44 | 50.04862 | 8.57790 | 360 ft | 17 kts | 113° |
| 2026-05-04 17:45 | 50.04842 | 8.57852 | 359 ft | 5 kts | 121° |
| 2026-05-04 17:45 | 50.04832 | 8.57874 | 361 ft | 0 kts | 128° |
| 2026-05-04 17:45 | 50.04824 | 8.57888 | 362 ft | 8 kts | 133° |
| 2026-05-04 17:45 | 50.04736 | 8.57941 | 357 ft | 19 kts | 158° |
| 2026-05-04 17:46 | 50.04644 | 8.57999 | 348 ft | 18 kts | 161° |
| 2026-05-04 17:46 | 50.04567 | 8.58110 | 338 ft | 17 kts | 86° |
| 2026-05-04 17:46 | 50.04614 | 8.58316 | 336 ft | 23 kts | 70° |
| 2026-05-04 17:46 | 50.04643 | 8.58438 | 333 ft | 0 kts | 68° |
| 2026-05-04 17:47 | 50.04643 | 8.58439 | 333 ft | 1 kts | 68° |
| 2026-05-04 17:47 | 50.04648 | 8.58459 | 330 ft | 0 kts | 68° |
| 2026-05-04 17:49 | 50.04651 | 8.58471 | 331 ft | 3 kts | 68° |
| 2026-05-04 17:50 | 50.04654 | 8.58506 | 330 ft | 8 kts | 88° |
| 2026-05-04 17:50 | 50.04637 | 8.58557 | 327 ft | 5 kts | 137° |
| 2026-05-04 17:50 | 50.04594 | 8.58589 | 324 ft | 0 kts | 162° |
| 2026-05-04 17:51 | 50.04573 | 8.58600 | 324 ft | 7 kts | 161° |
| 2026-05-04 17:51 | 50.04508 | 8.58609 | 326 ft | 11 kts | 206° |
| 2026-05-04 17:51 | 50.04482 | 8.58556 | 327 ft | 0 kts | 249° |
| 2026-05-04 17:53 | 50.04480 | 8.58550 | 330 ft | 6 kts | 249° |
| 2026-05-04 17:53 | 50.04353 | 8.58015 | 329 ft | 100 kts | 249° |
| 2026-05-04 17:53 | 50.04026 | 8.56643 | 414 ft | 162 kts | 252° |
| 2026-05-04 17:53 | 50.03589 | 8.55019 | 1279 ft | 166 kts | 247° |
| 2026-05-04 17:54 | 50.03110 | 8.53384 | 2283 ft | 167 kts | 250° |
| 2026-05-04 17:54 | 50.02702 | 8.51591 | 3020 ft | 184 kts | 252° |
| 2026-05-04 17:54 | 50.02130 | 8.49744 | 3635 ft | 202 kts | 232° |
| 2026-05-04 17:54 | 50.01019 | 8.48363 | 4374 ft | 207 kts | 204° |
| 2026-05-04 17:55 | 49.99638 | 8.47836 | 5254 ft | 205 kts | 188° |
| 2026-05-04 17:55 | 49.98218 | 8.47545 | 5976 ft | 207 kts | 187° |
| 2026-05-04 17:55 | 49.96780 | 8.47249 | 6810 ft | 209 kts | 188° |
| 2026-05-04 17:55 | 49.95368 | 8.46775 | 7915 ft | 208 kts | 197° |
| 2026-05-04 17:56 | 49.93923 | 8.46101 | 8797 ft | 228 kts | 197° |
| 2026-05-04 17:56 | 49.92372 | 8.45232 | 9750 ft | 243 kts | 210° |
| 2026-05-04 17:56 | 49.91148 | 8.43417 | 10987 ft | 249 kts | 236° |
| 2026-05-04 17:56 | 49.90558 | 8.40850 | 11930 ft | 260 kts | 261° |
| 2026-05-04 17:57 | 49.90773 | 8.38064 | 12460 ft | 271 kts | 287° |
| 2026-05-04 17:57 | 49.91811 | 8.35590 | 12763 ft | 281 kts | 313° |
| 2026-05-04 17:57 | 49.93501 | 8.33968 | 12961 ft | 301 kts | 335° |
| 2026-05-04 17:57 | 49.95631 | 8.32863 | 13189 ft | 343 kts | 340° |
| 2026-05-04 17:58 | 49.97996 | 8.31722 | 13403 ft | 362 kts | 339° |
| 2026-05-04 17:58 | 50.00381 | 8.30437 | 13620 ft | 363 kts | 337° |
| 2026-05-04 17:58 | 50.02766 | 8.29123 | 13816 ft | 366 kts | 343° |
| 2026-05-04 17:58 | 50.05309 | 8.28651 | 14012 ft | 372 kts | 0° |
| 2026-05-04 17:59 | 50.07866 | 8.29366 | 14204 ft | 375 kts | 17° |
| 2026-05-04 17:59 | 50.10353 | 8.30658 | 14395 ft | 377 kts | 18° |
| 2026-05-04 17:59 | 50.15305 | 8.33269 | 14785 ft | 379 kts | 18° |
| 2026-05-04 18:00 | 50.17803 | 8.34583 | 15013 ft | 380 kts | 18° |
| 2026-05-04 18:00 | 50.20317 | 8.35904 | 15285 ft | 382 kts | 18° |
| 2026-05-04 18:00 | 50.22846 | 8.37232 | 15558 ft | 383 kts | 18° |
| 2026-05-04 18:00 | 50.25382 | 8.38566 | 15891 ft | 385 kts | 17° |
| 2026-05-04 18:01 | 50.27930 | 8.39907 | 16277 ft | 387 kts | 17° |
| 2026-05-04 18:01 | 50.30490 | 8.41261 | 16654 ft | 389 kts | 18° |
| 2026-05-04 18:01 | 50.33059 | 8.42652 | 17166 ft | 392 kts | 18° |
| 2026-05-04 18:02 | 50.38235 | 8.45489 | 18242 ft | 397 kts | 18° |
| 2026-05-04 18:02 | 50.40822 | 8.46906 | 18710 ft | 400 kts | 18° |
| 2026-05-04 18:02 | 50.43459 | 8.48350 | 19172 ft | 402 kts | 18° |
| 2026-05-04 18:02 | 50.46111 | 8.49802 | 19661 ft | 406 kts | 18° |
| 2026-05-04 18:03 | 50.48788 | 8.51249 | 20146 ft | 409 kts | 16° |
| 2026-05-04 18:03 | 50.51515 | 8.52579 | 20650 ft | 411 kts | 15° |
| 2026-05-04 18:03 | 50.54269 | 8.53861 | 21158 ft | 414 kts | 14° |
| 2026-05-04 18:03 | 50.57052 | 8.55155 | 21681 ft | 418 kts | 14° |
| 2026-05-04 18:04 | 50.59852 | 8.56474 | 22203 ft | 422 kts | 14° |
| 2026-05-04 18:04 | 50.62674 | 8.57816 | 22737 ft | 425 kts | 15° |
| 2026-05-04 18:04 | 50.68389 | 8.60560 | 23781 ft | 433 kts | 15° |
| 2026-05-04 18:05 | 50.71280 | 8.61954 | 24259 ft | 436 kts | 14° |
| 2026-05-04 18:05 | 50.74205 | 8.63367 | 24726 ft | 440 kts | 14° |
| 2026-05-04 18:05 | 50.77111 | 8.64772 | 25200 ft | 444 kts | 14° |
| 2026-05-04 18:05 | 50.80017 | 8.66487 | 25685 ft | 451 kts | 25° |
| 2026-05-04 18:06 | 50.84870 | 8.72862 | 26704 ft | 463 kts | 52° |
| 2026-05-04 18:06 | 50.86833 | 8.76941 | 27216 ft | 467 kts | 53° |
| 2026-05-04 18:06 | 50.88803 | 8.81070 | 27742 ft | 472 kts | 53° |
| 2026-05-04 18:07 | 50.90769 | 8.85196 | 28271 ft | 476 kts | 53° |
| 2026-05-04 18:07 | 50.92777 | 8.89409 | 28812 ft | 481 kts | 53° |
| 2026-05-04 18:07 | 50.94810 | 8.93672 | 29369 ft | 485 kts | 53° |
| 2026-05-04 18:07 | 50.96855 | 8.97967 | 29940 ft | 489 kts | 53° |
| 2026-05-04 18:08 | 50.98912 | 9.02294 | 30456 ft | 493 kts | 53° |
| 2026-05-04 18:08 | 51.00990 | 9.06674 | 30945 ft | 497 kts | 53° |
| 2026-05-04 18:08 | 51.03082 | 9.11089 | 31456 ft | 498 kts | 53° |
| 2026-05-04 18:08 | 51.05133 | 9.15425 | 31963 ft | 496 kts | 53° |
| 2026-05-04 18:09 | 51.09421 | 9.23942 | 33015 ft | 491 kts | 43° |
| 2026-05-04 18:09 | 51.15070 | 9.29761 | 34102 ft | 481 kts | 18° |
| 2026-05-04 18:10 | 51.18257 | 9.31232 | 34586 ft | 476 kts | 8° |
| 2026-05-04 18:10 | 51.21518 | 9.32225 | 34869 ft | 474 kts | 6° |
| 2026-05-04 18:10 | 51.28008 | 9.34111 | 34967 ft | 474 kts | 7° |
| 2026-05-04 18:11 | 51.34430 | 9.36230 | 35017 ft | 476 kts | 8° |
| 2026-05-04 18:11 | 51.37677 | 9.37351 | 35460 ft | 477 kts | 8° |
| 2026-05-04 18:11 | 51.40911 | 9.38481 | 36023 ft | 475 kts | 8° |
| 2026-05-04 18:12 | 51.44139 | 9.39612 | 36550 ft | 475 kts | 8° |
| 2026-05-04 18:12 | 51.47372 | 9.40745 | 37037 ft | 474 kts | 9° |
| 2026-05-04 18:12 | 51.50591 | 9.41874 | 37538 ft | 473 kts | 9° |
| 2026-05-04 18:12 | 51.53768 | 9.42989 | 38052 ft | 472 kts | 9° |
| 2026-05-04 18:13 | 51.56973 | 9.44115 | 38517 ft | 471 kts | 9° |
| 2026-05-04 18:13 | 51.60176 | 9.45241 | 38848 ft | 470 kts | 9° |
| 2026-05-04 18:13 | 51.66541 | 9.47486 | 38995 ft | 468 kts | 9° |
| 2026-05-04 18:14 | 51.69739 | 9.48616 | 38982 ft | 466 kts | 9° |
| 2026-05-04 18:14 | 51.76074 | 9.50859 | 38974 ft | 466 kts | 9° |
| 2026-05-04 18:15 | 51.88335 | 9.57818 | 38972 ft | 472 kts | 25° |
| 2026-05-04 18:16 | 51.94185 | 9.62636 | 38976 ft | 470 kts | 24° |
| 2026-05-04 18:16 | 52.00016 | 9.67439 | 38966 ft | 469 kts | 24° |
| 2026-05-04 18:17 | 52.08685 | 9.74655 | 38948 ft | 467 kts | 25° |
| 2026-05-04 18:18 | 52.17370 | 9.81927 | 38973 ft | 469 kts | 25° |
| 2026-05-04 18:18 | 52.23169 | 9.86800 | 38973 ft | 469 kts | 25° |
| 2026-05-04 18:19 | 52.31896 | 9.94055 | 38961 ft | 468 kts | 24° |
| 2026-05-04 18:19 | 52.37717 | 9.98845 | 38958 ft | 468 kts | 24° |
| 2026-05-04 18:20 | 52.43512 | 10.03638 | 38930 ft | 465 kts | 24° |
| 2026-05-04 18:20 | 52.49288 | 10.08436 | 38945 ft | 467 kts | 24° |
| 2026-05-04 18:21 | 52.55064 | 10.13250 | 38931 ft | 468 kts | 24° |
| 2026-05-04 18:21 | 52.60882 | 10.18119 | 38938 ft | 469 kts | 24° |
| 2026-05-04 18:22 | 52.66691 | 10.22992 | 38939 ft | 469 kts | 24° |
| 2026-05-04 18:22 | 52.72502 | 10.27879 | 38939 ft | 469 kts | 24° |
| 2026-05-04 18:23 | 52.78324 | 10.32791 | 38940 ft | 469 kts | 24° |
| 2026-05-04 18:23 | 52.84104 | 10.37683 | 38941 ft | 469 kts | 24° |
| 2026-05-04 18:24 | 52.89917 | 10.42617 | 38945 ft | 469 kts | 24° |
| 2026-05-04 18:24 | 52.95729 | 10.47566 | 38944 ft | 469 kts | 24° |
| 2026-05-04 18:25 | 53.00561 | 10.51691 | 38949 ft | 469 kts | 24° |
| 2026-05-04 18:25 | 53.07315 | 10.57475 | 38948 ft | 469 kts | 24° |
| 2026-05-04 18:26 | 53.12137 | 10.61616 | 38948 ft | 469 kts | 24° |
| 2026-05-04 18:26 | 53.17935 | 10.66611 | 38950 ft | 469 kts | 24° |
| 2026-05-04 18:27 | 53.23739 | 10.71625 | 38948 ft | 469 kts | 24° |
| 2026-05-04 18:27 | 53.29538 | 10.76651 | 38962 ft | 469 kts | 25° |
| 2026-05-04 18:28 | 53.35322 | 10.81680 | 38958 ft | 468 kts | 25° |
| 2026-05-04 18:28 | 53.41074 | 10.86696 | 38956 ft | 468 kts | 25° |
| 2026-05-04 18:29 | 53.46849 | 10.91749 | 38951 ft | 468 kts | 24° |
| 2026-05-04 18:29 | 53.52617 | 10.96810 | 38911 ft | 465 kts | 24° |
| 2026-05-04 18:30 | 53.58320 | 11.01832 | 37778 ft | 462 kts | 24° |
| 2026-05-04 18:30 | 53.61176 | 11.04354 | 36912 ft | 464 kts | 24° |
| 2026-05-04 18:30 | 53.64036 | 11.06884 | 36033 ft | 466 kts | 23° |
| 2026-05-04 18:31 | 53.66913 | 11.09434 | 35167 ft | 468 kts | 23° |
| 2026-05-04 18:31 | 53.69801 | 11.11997 | 34315 ft | 470 kts | 22° |
| 2026-05-04 18:31 | 53.72699 | 11.14572 | 33354 ft | 472 kts | 22° |
| 2026-05-04 18:31 | 53.75616 | 11.17165 | 32331 ft | 475 kts | 22° |
| 2026-05-04 18:32 | 53.78561 | 11.19784 | 31120 ft | 481 kts | 23° |
| 2026-05-04 18:32 | 53.81553 | 11.22447 | 29899 ft | 489 kts | 23° |
| 2026-05-04 18:32 | 53.84512 | 11.25091 | 29044 ft | 485 kts | 23° |
| 2026-05-04 18:32 | 53.87464 | 11.27741 | 28365 ft | 476 kts | 23° |
| 2026-05-04 18:33 | 53.90359 | 11.30341 | 28038 ft | 468 kts | 23° |
| 2026-05-04 18:33 | 53.93263 | 11.32944 | 27973 ft | 474 kts | 23° |
| 2026-05-04 18:33 | 53.96180 | 11.35561 | 28000 ft | 474 kts | 24° |
| 2026-05-04 18:33 | 53.99105 | 11.38197 | 27965 ft | 475 kts | 22° |
| 2026-05-04 18:34 | 54.02019 | 11.40824 | 27967 ft | 474 kts | 22° |
| 2026-05-04 18:34 | 54.04938 | 11.43459 | 27981 ft | 474 kts | 22° |
| 2026-05-04 18:34 | 54.07855 | 11.46098 | 27966 ft | 474 kts | 23° |
| 2026-05-04 18:34 | 54.10733 | 11.48705 | 27968 ft | 474 kts | 23° |
| 2026-05-04 18:35 | 54.13642 | 11.51347 | 27787 ft | 470 kts | 23° |
| 2026-05-04 18:35 | 54.16514 | 11.53961 | 27263 ft | 466 kts | 23° |
| 2026-05-04 18:35 | 54.19362 | 11.56557 | 26592 ft | 461 kts | 23° |
| 2026-05-04 18:35 | 54.22174 | 11.59127 | 25873 ft | 456 kts | 22° |
| 2026-05-04 18:36 | 54.24960 | 11.61674 | 25190 ft | 450 kts | 22° |
| 2026-05-04 18:36 | 54.27705 | 11.64185 | 24522 ft | 444 kts | 22° |
| 2026-05-04 18:36 | 54.30412 | 11.66665 | 23868 ft | 439 kts | 22° |
| 2026-05-04 18:36 | 54.33088 | 11.69120 | 23155 ft | 433 kts | 22° |
| 2026-05-04 18:37 | 54.35731 | 11.71544 | 22424 ft | 427 kts | 22° |
| 2026-05-04 18:37 | 54.38341 | 11.73941 | 21685 ft | 422 kts | 22° |
| 2026-05-04 18:37 | 54.40910 | 11.76300 | 20987 ft | 416 kts | 23° |
| 2026-05-04 18:37 | 54.43446 | 11.78632 | 20319 ft | 411 kts | 23° |
| 2026-05-04 18:38 | 54.45948 | 11.80919 | 19693 ft | 404 kts | 22° |
| 2026-05-04 18:38 | 54.48464 | 11.82976 | 19011 ft | 398 kts | 20° |
| 2026-05-04 18:38 | 54.50983 | 11.84893 | 18352 ft | 393 kts | 20° |
| 2026-05-04 18:38 | 54.53472 | 11.86777 | 17620 ft | 389 kts | 20° |
| 2026-05-04 18:39 | 54.55932 | 11.88667 | 16882 ft | 385 kts | 20° |
| 2026-05-04 18:39 | 54.58330 | 11.90534 | 16175 ft | 381 kts | 20° |
| 2026-05-04 18:39 | 54.60726 | 11.92422 | 15500 ft | 377 kts | 21° |
| 2026-05-04 18:39 | 54.63014 | 11.94655 | 14826 ft | 377 kts | 30° |
| 2026-05-04 18:40 | 54.65175 | 11.97175 | 14179 ft | 373 kts | 30° |
| 2026-05-04 18:40 | 54.67327 | 11.99663 | 13521 ft | 370 kts | 30° |
| 2026-05-04 18:40 | 54.69461 | 12.02125 | 12808 ft | 367 kts | 30° |
| 2026-05-04 18:40 | 54.71575 | 12.04566 | 12143 ft | 363 kts | 30° |
| 2026-05-04 18:41 | 54.73657 | 12.06975 | 11495 ft | 359 kts | 30° |
| 2026-05-04 18:41 | 54.75721 | 12.09366 | 10867 ft | 355 kts | 30° |
| 2026-05-04 18:41 | 54.77739 | 12.11709 | 10265 ft | 351 kts | 30° |
| 2026-05-04 18:41 | 54.79732 | 12.14028 | 10018 ft | 336 kts | 30° |
| 2026-05-04 18:42 | 54.81628 | 12.16243 | 9864 ft | 320 kts | 30° |
| 2026-05-04 18:42 | 54.83433 | 12.18353 | 9689 ft | 305 kts | 30° |
| 2026-05-04 18:42 | 54.85180 | 12.20391 | 9286 ft | 300 kts | 30° |
| 2026-05-04 18:42 | 54.86901 | 12.22395 | 9021 ft | 298 kts | 30° |
| 2026-05-04 18:43 | 54.88633 | 12.24411 | 8958 ft | 300 kts | 30° |
| 2026-05-04 18:43 | 54.90360 | 12.26428 | 8958 ft | 299 kts | 30° |
| 2026-05-04 18:43 | 54.92080 | 12.28441 | 8960 ft | 297 kts | 30° |
| 2026-05-04 18:43 | 54.93792 | 12.30449 | 8959 ft | 297 kts | 30° |
| 2026-05-04 18:44 | 54.95504 | 12.32457 | 8953 ft | 297 kts | 30° |
| 2026-05-04 18:44 | 54.96644 | 12.33793 | 8954 ft | 297 kts | 30° |
| 2026-05-04 18:44 | 54.98937 | 12.36483 | 8956 ft | 297 kts | 30° |
| 2026-05-04 18:44 | 55.00650 | 12.38494 | 8956 ft | 297 kts | 30° |
| 2026-05-04 18:45 | 55.02343 | 12.40473 | 8954 ft | 297 kts | 30° |
| 2026-05-04 18:45 | 55.04061 | 12.42475 | 8955 ft | 297 kts | 30° |
| 2026-05-04 18:45 | 55.05779 | 12.44477 | 8948 ft | 297 kts | 30° |
| 2026-05-04 18:45 | 55.07500 | 12.46488 | 8951 ft | 297 kts | 30° |
| 2026-05-04 18:46 | 55.09220 | 12.48500 | 8957 ft | 297 kts | 30° |
| 2026-05-04 18:46 | 55.10935 | 12.50509 | 8955 ft | 297 kts | 30° |
| 2026-05-04 18:46 | 55.12654 | 12.52525 | 8954 ft | 297 kts | 30° |
| 2026-05-04 18:46 | 55.14377 | 12.54548 | 8960 ft | 297 kts | 30° |
| 2026-05-04 18:47 | 55.16087 | 12.56560 | 8954 ft | 296 kts | 30° |
| 2026-05-04 18:47 | 55.17798 | 12.58573 | 8951 ft | 296 kts | 30° |
| 2026-05-04 18:47 | 55.19481 | 12.60556 | 8779 ft | 294 kts | 30° |
| 2026-05-04 18:47 | 55.21170 | 12.62547 | 8387 ft | 292 kts | 30° |
| 2026-05-04 18:48 | 55.22877 | 12.64467 | 7935 ft | 289 kts | 25° |
| 2026-05-04 18:48 | 55.24703 | 12.65829 | 7482 ft | 283 kts | 13° |
| 2026-05-04 18:48 | 55.26579 | 12.66865 | 7028 ft | 281 kts | 13° |
| 2026-05-04 18:48 | 55.28437 | 12.67912 | 6587 ft | 279 kts | 14° |
| 2026-05-04 18:49 | 55.30272 | 12.68956 | 6256 ft | 272 kts | 14° |
| 2026-05-04 18:49 | 55.32014 | 12.69958 | 6014 ft | 256 kts | 14° |
| 2026-05-04 18:49 | 55.33691 | 12.70918 | 5539 ft | 253 kts | 14° |
| 2026-05-04 18:49 | 55.35360 | 12.71868 | 5194 ft | 251 kts | 14° |
| 2026-05-04 18:50 | 55.37006 | 12.72806 | 5039 ft | 250 kts | 14° |
| 2026-05-04 18:50 | 55.38672 | 12.73755 | 5014 ft | 250 kts | 14° |
| 2026-05-04 18:50 | 55.40323 | 12.74700 | 5014 ft | 250 kts | 14° |
| 2026-05-04 18:50 | 55.41978 | 12.75648 | 5014 ft | 250 kts | 14° |
| 2026-05-04 18:51 | 55.43629 | 12.76595 | 4953 ft | 249 kts | 14° |
| 2026-05-04 18:51 | 55.45270 | 12.77537 | 4681 ft | 247 kts | 14° |
| 2026-05-04 18:51 | 55.46883 | 12.78463 | 4345 ft | 246 kts | 15° |
| 2026-05-04 18:51 | 55.48506 | 12.79396 | 4068 ft | 242 kts | 15° |
| 2026-05-04 18:52 | 55.50122 | 12.80325 | 4009 ft | 246 kts | 15° |
| 2026-05-04 18:52 | 55.51738 | 12.81257 | 4008 ft | 244 kts | 15° |
| 2026-05-04 18:52 | 55.53362 | 12.82192 | 4009 ft | 245 kts | 15° |
| 2026-05-04 18:52 | 55.54979 | 12.83126 | 4001 ft | 244 kts | 15° |
| 2026-05-04 18:53 | 55.56582 | 12.84166 | 4003 ft | 246 kts | 19° |
| 2026-05-04 18:53 | 55.58166 | 12.85311 | 4001 ft | 245 kts | 19° |
| 2026-05-04 18:53 | 55.59714 | 12.86428 | 4000 ft | 238 kts | 19° |
| 2026-05-04 18:53 | 55.61227 | 12.87520 | 4003 ft | 237 kts | 19° |
| 2026-05-04 18:54 | 55.62713 | 12.88769 | 4009 ft | 236 kts | 28° |
| 2026-05-04 18:54 | 55.64078 | 12.90392 | 4001 ft | 236 kts | 30° |
| 2026-05-04 18:54 | 55.65447 | 12.92011 | 3994 ft | 236 kts | 30° |
| 2026-05-04 18:54 | 55.66803 | 12.93611 | 3760 ft | 233 kts | 30° |
| 2026-05-04 18:55 | 55.68146 | 12.95192 | 3395 ft | 230 kts | 30° |
| 2026-05-04 18:55 | 55.70688 | 12.98124 | 3011 ft | 205 kts | 20° |
| 2026-05-04 18:55 | 55.72060 | 12.98422 | 3007 ft | 201 kts | 345° |
| 2026-05-04 18:56 | 55.73222 | 12.97290 | 3011 ft | 194 kts | 316° |
| 2026-05-04 18:56 | 55.74181 | 12.95687 | 2998 ft | 180 kts | 315° |
| 2026-05-04 18:56 | 55.75058 | 12.94215 | 3001 ft | 176 kts | 315° |
| 2026-05-04 18:56 | 55.75940 | 12.92730 | 3002 ft | 173 kts | 315° |
| 2026-05-04 18:57 | 55.76598 | 12.90983 | 3014 ft | 173 kts | 283° |
| 2026-05-04 18:57 | 55.76378 | 12.88886 | 3025 ft | 181 kts | 245° |
| 2026-05-04 18:57 | 55.75606 | 12.87123 | 3017 ft | 182 kts | 229° |
| 2026-05-04 18:57 | 55.74670 | 12.85591 | 3021 ft | 184 kts | 225° |
| 2026-05-04 18:58 | 55.73698 | 12.84094 | 2974 ft | 184 kts | 225° |
| 2026-05-04 18:58 | 55.72739 | 12.82598 | 2749 ft | 183 kts | 225° |
| 2026-05-04 18:58 | 55.71781 | 12.81106 | 2493 ft | 184 kts | 225° |
| 2026-05-04 18:58 | 55.70823 | 12.79616 | 2242 ft | 182 kts | 225° |
| 2026-05-04 18:59 | 55.69873 | 12.78138 | 1991 ft | 180 kts | 225° |
| 2026-05-04 18:59 | 55.68940 | 12.76688 | 1750 ft | 180 kts | 225° |
| 2026-05-04 18:59 | 55.67987 | 12.75206 | 1493 ft | 182 kts | 225° |
| 2026-05-04 18:59 | 55.67106 | 12.73846 | 1269 ft | 153 kts | 225° |
| 2026-05-04 19:00 | 55.66362 | 12.72689 | 1064 ft | 137 kts | 226° |
| 2026-05-04 19:00 | 55.65641 | 12.71566 | 860 ft | 135 kts | 225° |
| 2026-05-04 19:00 | 55.64945 | 12.70485 | 690 ft | 133 kts | 224° |
| 2026-05-04 19:00 | 55.64234 | 12.69404 | 520 ft | 137 kts | 223° |
| 2026-05-04 19:01 | 55.63516 | 12.68313 | 428 ft | 137 kts | 225° |
| 2026-05-04 19:01 | 55.62816 | 12.67181 | 216 ft | 136 kts | 225° |
| 2026-05-04 19:01 | 55.62129 | 12.66128 | 35 ft | 121 kts | 225° |
| 2026-05-04 19:01 | 55.61600 | 12.65297 | 16 ft | 58 kts | 220° |
| 2026-05-04 19:02 | 55.61475 | 12.65091 | 18 ft | 11 kts | 236° |
| 2026-05-04 19:02 | 55.61500 | 12.65054 | 18 ft | 7 kts | 355° |
| 2026-05-04 19:02 | 55.61579 | 12.65038 | 17 ft | 15 kts | 336° |
| 2026-05-04 19:02 | 55.61672 | 12.64901 | 16 ft | 20 kts | 313° |
| 2026-05-04 19:03 | 55.61790 | 12.64790 | 18 ft | 20 kts | 356° |
| 2026-05-04 19:03 | 55.61806 | 12.64789 | 18 ft | 0 kts | 358° |
| 2026-05-04 19:03 | 55.61807 | 12.64789 | 18 ft | 1 kts | 358° |
| 2026-05-04 19:03 | 55.61846 | 12.64797 | 17 ft | 10 kts | 12° |
| 2026-05-04 19:04 | 55.61936 | 12.64868 | 18 ft | 17 kts | 30° |
| 2026-05-04 19:04 | 55.62048 | 12.64994 | 23 ft | 21 kts | 34° |
| 2026-05-04 19:04 | 55.62107 | 12.65065 | 24 ft | 1 kts | 33° |
| 2026-05-04 19:04 | 55.62125 | 12.65085 | 24 ft | 0 kts | 33° |
| 2026-05-04 19:05 | 55.62128 | 12.65088 | 24 ft | 2 kts | 32° |
| 2026-05-04 19:05 | 55.62161 | 12.65099 | 24 ft | 7 kts | 2° |
| 2026-05-04 19:05 | 55.62222 | 12.65178 | 25 ft | 15 kts | 39° |
| 2026-05-04 19:05 | 55.62283 | 12.65245 | 22 ft | 6 kts | 57° |
| 2026-05-04 19:06 | 55.62292 | 12.65304 | 21 ft | 0 kts | 92° |
| 2026-05-04 19:06 | 55.62292 | 12.65307 | 21 ft | 3 kts | 92° |
| 2026-05-04 19:06 | 55.62292 | 12.65400 | 20 ft | 12 kts | 83° |
| 2026-05-04 19:06 | 55.62299 | 12.65606 | 16 ft | 22 kts | 87° |
| 2026-05-04 19:07 | 55.62303 | 12.65911 | 15 ft | 23 kts | 85° |
| 2026-05-04 19:07 | 55.62398 | 12.66124 | 15 ft | 24 kts | 42° |
| 2026-05-04 19:07 | 55.62482 | 12.66223 | 16 ft | 5 kts | 358° |
| 2026-05-04 19:07 | 55.62520 | 12.66167 | 16 ft | 9 kts | 290° |
| 2026-05-04 19:08 | 55.62484 | 12.66063 | 17 ft | 13 kts | 220° |
| 2026-05-04 19:08 | 55.62449 | 12.65886 | 14 ft | 19 kts | 268° |
| 2026-05-04 19:08 | 55.62444 | 12.65631 | 18 ft | 22 kts | 269° |
| 2026-05-04 19:08 | 55.62438 | 12.65390 | 17 ft | 5 kts | 269° |
| 2026-05-04 19:09 | 55.62438 | 12.65369 | 18 ft | 4 kts | 270° |
| 2026-05-04 19:09 | 55.62460 | 12.65335 | 19 ft | 6 kts | 340° |
| 2026-05-04 19:09 | 55.62523 | 12.65321 | 21 ft | 12 kts | 0° |
| 2026-05-04 19:09 | 55.62624 | 12.65318 | 19 ft | 12 kts | 355° |
| 2026-05-04 19:10 | 55.62649 | 12.65335 | 18 ft | 9 kts | 37° |
| 2026-05-04 19:10 | 55.62682 | 12.65375 | 17 ft | 6 kts | 31° |
| 2026-05-04 19:10 | 55.62702 | 12.65395 | 18 ft | 3 kts | 29° |
| 2026-05-04 19:10 | 55.62712 | 12.65404 | 18 ft | 2 kts | 27° |
| 2026-05-04 19:11 | 55.62716 | 12.65407 | 18 ft | 0 kts | 28° |